Time;durP1;ratioP1;P1;durP2;ratioP2;P2;SDS_P1;SDS_P2;PMS_P1;PMS_P2;Temp;Humidity;BMP_temperature;BMP_pressure;BME280_temperature;BME280_humidity;BME280_pressure;Samples;Min_cycle;Max_cycle;Signal;HPM_P1;HPM_P2
2023/10/07 00:00:24;;;;;;;;;;;;;;;16.71;55.01;101713.47;4959043;29;1056;-57
2023/10/07 00:02:48;;;;;;;;;;;;;;;16.54;54.86;101708.84;4940227;29;1327;-57
2023/10/07 00:05:16;;;;;;;;;;;;;;;17.54;55.23;101708.00;4941867;29;1918;-57
2023/10/07 00:07:45;;;;;;;;;;;;;;;17.39;55.21;101705.91;4958843;29;1103;-58
2023/10/07 00:10:16;;;;;;;;;;;;;;;16.97;55.47;101702.88;4952583;29;1005;-57
2023/10/07 00:12:42;;;;;;;;;;;;;;;16.82;55.27;101701.56;4959310;29;1057;-57
2023/10/07 00:15:11;;;;;;;;;;;;;;;17.53;55.57;101694.50;4946184;29;1111;-57
2023/10/07 00:17:42;;;;;;;;;;;;;;;17.43;55.30;101686.97;4958982;29;1108;-56
2023/10/07 00:20:10;;;;;;;;;;;;;;;17.03;55.53;101694.47;4958294;28;1135;-57
2023/10/07 00:22:40;;;;;;;;;;;;;;;16.86;55.23;101688.97;4947355;29;910;-57
2023/10/07 00:25:07;;;;;;;;;;;;;;;16.74;54.74;101686.31;4952146;29;1974;-57
2023/10/07 00:27:38;;;;;;;;;;;;;;;17.64;55.08;101685.28;4951420;29;1052;-58
2023/10/07 00:30:12;;;;;;;;;;;;;;;17.24;55.57;101681.00;4952895;29;1118;-57
2023/10/07 00:32:38;;;;;;;;;;;;;;;17.00;55.16;101683.97;4952505;29;1125;-57
2023/10/07 00:35:06;;;;;;;;;;;;;;;16.84;54.97;101677.41;4951493;29;885;-57
2023/10/07 00:37:33;;;;;;;;;;;;;;;16.72;54.68;101683.00;4943164;29;1035;-57
2023/10/07 00:40:01;;;;;;;;;;;;;;;16.68;55.30;101684.59;4947215;29;1240;-57
2023/10/07 00:42:28;;;;;;;;;;;;;;;17.79;54.52;101682.72;4944480;29;1395;-57
2023/10/07 00:44:55;;;;;;;;;;;;;;;17.13;55.59;101679.22;4948548;29;1902;-57
2023/10/07 00:47:21;;;;;;;;;;;;;;;16.88;55.37;101673.09;4952483;29;850;-58
2023/10/07 00:52:24;;;;;;;;;;;;;;;17.82;54.72;101662.09;4956730;29;1265;-57
2023/10/07 01:00:00;;;;;;;;;;;;;;;16.76;55.19;101662.19;4950870;29;1061;-57
2023/10/07 01:02:32;;;;;;;;;;;;;;;16.70;54.82;101668.69;4956679;29;1301;-57
2023/10/07 01:05:12;;;;;;;;;;;;;;;17.78;54.74;101664.53;4943656;29;1968;-57
2023/10/07 01:07:38;;;;;;;;;;;;;;;17.17;55.55;101659.19;4957963;29;1073;-56
2023/10/07 01:12:44;;;;;;;;;;;;;;;16.72;55.11;101660.22;4938947;29;1152;-58
2023/10/07 01:17:53;;;;;;;;;;;;;;;17.07;55.64;101659.91;4957166;29;1100;-58
2023/10/07 01:20:22;;;;;;;;;;;;;;;17.63;54.87;101664.38;4944786;29;986;-58
2023/10/07 01:23:04;;;;;;;;;;;;;;;17.12;55.39;101658.31;4948836;29;1058;-58
2023/10/07 01:25:30;;;;;;;;;;;;;;;16.90;54.89;101664.59;4957961;29;1906;-58
2023/10/07 01:27:56;;;;;;;;;;;;;;;17.33;55.83;101662.13;4955384;29;1189;-58
2023/10/07 01:30:29;;;;;;;;;;;;;;;17.56;54.88;101664.59;4938917;29;1149;-58
2023/10/07 01:33:02;;;;;;;;;;;;;;;17.10;55.32;101659.38;4954344;29;1062;-58
2023/10/07 01:35:47;;;;;;;;;;;;;;;16.88;55.23;101667.59;4953881;29;878;-57
2023/10/07 01:38:18;;;;;;;;;;;;;;;16.75;54.62;101667.94;4957803;29;1331;-57
2023/10/07 01:43:19;;;;;;;;;;;;;;;17.85;54.79;101660.75;4947172;29;1070;-57
2023/10/07 01:45:47;;;;;;;;;;;;;;;17.20;55.48;101664.16;4943506;29;1903;-57
2023/10/07 01:48:13;;;;;;;;;;;;;;;16.96;55.35;101671.84;4938612;29;855;-58
2023/10/07 01:50:39;;;;;;;;;;;;;;;16.72;55.05;101663.78;4937761;29;1114;-58
2023/10/07 01:53:05;;;;;;;;;;;;;;;16.77;55.39;101672.13;4946958;29;1166;-57
2023/10/07 01:55:34;;;;;;;;;;;;;;;17.85;54.73;101669.84;4944704;29;1062;-57
2023/10/07 01:58:00;;;;;;;;;;;;;;;17.24;55.22;101659.81;4955720;29;1109;-57
2023/10/07 02:00:44;;;;;;;;;;;;;;;16.94;55.31;101668.50;4952567;29;1103;-58
2023/10/07 02:03:13;;;;;;;;;;;;;;;16.81;54.84;101666.94;4960213;28;1115;-57
2023/10/07 02:05:44;;;;;;;;;;;;;;;16.69;54.88;101660.72;4961025;29;1985;-57
2023/10/07 02:08:16;;;;;;;;;;;;;;;16.86;55.48;101660.69;4961433;29;1026;-57
2023/10/07 02:10:42;;;;;;;;;;;;;;;17.75;54.79;101658.72;4947096;29;1114;-57
2023/10/07 02:13:12;;;;;;;;;;;;;;;17.13;55.46;101662.72;4960715;29;1058;-57
2023/10/07 02:15:38;;;;;;;;;;;;;;;16.89;55.39;101660.22;4949342;29;1061;-58
2023/10/07 02:18:04;;;;;;;;;;;;;;;16.71;55.01;101656.63;4959080;29;1135;-58
2023/10/07 02:20:38;;;;;;;;;;;;;;;16.72;55.46;101661.03;4947523;29;1219;-58
2023/10/07 02:23:11;;;;;;;;;;;;;;;17.77;54.56;101657.38;4953827;29;1129;-59
2023/10/07 02:25:40;;;;;;;;;;;;;;;17.15;55.37;101655.03;4950546;29;1914;-57
2023/10/07 02:28:06;;;;;;;;;;;;;;;16.91;55.35;101655.28;4954680;29;1176;-57
2023/10/07 02:30:38;;;;;;;;;;;;;;;16.72;55.11;101652.81;4951860;29;1089;-57
2023/10/07 02:33:08;;;;;;;;;;;;;;;17.90;54.64;101644.28;4947726;29;1136;-57
2023/10/07 02:35:36;;;;;;;;;;;;;;;17.27;55.56;101647.50;4959098;29;1105;-57
2023/10/07 02:38:03;;;;;;;;;;;;;;;17.03;55.10;101649.69;4960300;29;1160;-57
2023/10/07 02:40:48;;;;;;;;;;;;;;;16.86;54.96;101650.53;4960395;29;1066;-57
2023/10/07 02:43:15;;;;;;;;;;;;;;;16.69;54.69;101650.56;4960361;29;1199;-57
2023/10/07 02:45:42;;;;;;;;;;;;;;;16.58;54.44;101657.00;4946050;29;1939;-57
2023/10/07 02:48:11;;;;;;;;;;;;;;;16.94;55.62;101660.25;4953673;29;874;-56
2023/10/07 02:50:41;;;;;;;;;;;;;;;17.75;54.76;101645.81;4958291;28;1177;-57
2023/10/07 02:53:16;;;;;;;;;;;;;;;17.10;55.43;101647.56;4951011;29;1149;-57
2023/10/07 02:58:36;;;;;;;;;;;;;;;16.71;54.80;101650.31;4940693;29;1241;-57
2023/10/07 03:01:13;;;;;;;;;;;;;;;17.43;55.57;101652.09;4949078;29;1243;-57
2023/10/07 03:03:40;;;;;;;;;;;;;;;17.38;55.23;101653.94;4959399;29;1902;-57
2023/10/07 03:06:07;;;;;;;;;;;;;;;17.02;55.21;101651.56;4960904;29;1086;-57
2023/10/07 03:11:21;;;;;;;;;;;;;;;16.69;54.89;101647.81;4952724;29;1057;-57
2023/10/07 03:13:49;;;;;;;;;;;;;;;17.42;55.59;101650.41;4940011;29;990;-59
2023/10/07 03:24:10;;;;;;;;;;;;;;;16.79;55.33;101643.53;4954492;29;2182;-54
2023/10/07 03:26:40;;;;;;;;;;;;;;;17.80;54.53;101645.03;4954610;29;2136;-54
2023/10/07 03:29:06;;;;;;;;;;;;;;;17.10;55.33;101653.88;4948334;29;1824;-54
2023/10/07 03:31:35;;;;;;;;;;;;;;;16.89;55.28;101647.28;4947407;29;2108;-52
2023/10/07 03:34:08;;;;;;;;;;;;;;;16.82;55.28;101652.13;4955758;29;1247;-53
2023/10/07 03:42:33;;;;;;;;;;;;;;;16.85;55.21;101651.59;4922811;29;1374;-51
2023/10/07 03:45:00;;;;;;;;;;;;;;;16.71;54.92;101656.63;4957816;28;1909;-53
2023/10/07 03:47:26;;;;;;;;;;;;;;;16.64;54.70;101644.19;4954804;29;1061;-49
2023/10/07 03:49:58;;;;;;;;;;;;;;;17.21;55.82;101643.84;4955612;28;1168;-51
2023/10/07 03:52:27;;;;;;;;;;;;;;;17.45;55.25;101649.88;4958726;28;1148;-53
2023/10/07 03:54:54;;;;;;;;;;;;;;;17.02;55.55;101662.56;4946427;29;1165;-48
2023/10/07 03:57:19;;;;;;;;;;;;;;;16.83;55.07;101659.28;4959128;29;1006;-52
2023/10/07 03:59:45;;;;;;;;;;;;;;;16.67;55.12;101655.47;4958838;29;908;-49
2023/10/07 04:02:34;;;;;;;;;;;;;;;16.61;54.62;101661.97;4957757;28;2318;-50
2023/10/07 04:05:10;;;;;;;;;;;;;;;17.62;55.26;101657.22;4957983;29;1906;-51
2023/10/07 04:07:35;;;;;;;;;;;;;;;17.34;55.41;101661.88;4950835;29;1053;-54
2023/10/07 04:12:47;;;;;;;;;;;;;;;16.79;55.27;101674.59;4953040;29;846;-50
2023/10/07 04:15:16;;;;;;;;;;;;;;;17.14;55.88;101669.84;4945321;29;1033;-49
2023/10/07 04:17:45;;;;;;;;;;;;;;;17.68;54.83;101672.66;4957810;29;1016;-45
2023/10/07 04:20:22;;;;;;;;;;;;;;;17.12;55.47;101675.59;4940246;29;1145;-52
2023/10/07 04:22:57;;;;;;;;;;;;;;;16.90;55.05;101672.84;4952584;29;1042;-51
2023/10/07 04:25:23;;;;;;;;;;;;;;;16.76;54.99;101675.94;4949972;28;1911;-53
2023/10/07 04:27:53;;;;;;;;;;;;;;;16.60;54.85;101677.59;4954092;29;1006;-53
2023/10/07 04:30:28;;;;;;;;;;;;;;;17.77;55.24;101679.38;4958909;29;1120;-50
2023/10/07 04:33:00;;;;;;;;;;;;;;;17.21;55.46;101673.25;4957334;28;1231;-47
2023/10/07 04:35:32;;;;;;;;;;;;;;;16.90;55.64;101676.44;4958705;29;1104;-50
2023/10/07 04:38:30;;;;;;;;;;;;;;;17.64;56.04;101674.28;4953420;29;1049;-45
2023/10/07 04:44:20;;;;;;;;;;;;;;;16.65;51.80;101665.88;4953224;29;974;-50
2023/10/07 04:46:28;;;;;;;;;;;;;;;17.38;54.23;101674.00;4946295;29;1547;-52
2023/10/07 04:48:56;;;;;;;;;;;;;;;16.77;52.63;101677.59;4944849;28;1058;-51
2023/10/07 04:53:59;;;;;;;;;;;;;;;17.13;52.62;101668.22;4956608;29;1088;-48
2023/10/07 04:56:25;;;;;;;;;;;;;;;16.80;50.96;101670.75;4957387;29;1001;-51
2023/10/07 04:58:54;;;;;;;;;;;;;;;17.42;51.94;101674.34;4948329;28;1444;-50
2023/10/07 05:01:22;;;;;;;;;;;;;;;17.09;51.66;101679.69;4957789;29;1043;-50
2023/10/07 05:03:55;;;;;;;;;;;;;;;17.51;52.54;101672.78;4954791;28;1973;-51
2023/10/07 05:06:26;;;;;;;;;;;;;;;18.03;52.78;101676.06;4955747;29;1089;-51
2023/10/07 05:08:52;;;;;;;;;;;;;;;17.33;51.65;101665.69;4957921;29;1339;-50
2023/10/07 05:11:18;;;;;;;;;;;;;;;17.17;50.31;101674.84;4957988;29;1124;-51
2023/10/07 05:13:46;;;;;;;;;;;;;;;16.85;49.33;101664.50;4948167;28;1085;-53
2023/10/07 05:16:15;;;;;;;;;;;;;;;17.16;49.53;101673.19;4957457;28;1042;-48
2023/10/07 05:18:41;;;;;;;;;;;;;;;17.86;51.78;101673.41;4954244;29;1050;-51
2023/10/07 05:21:06;;;;;;;;;;;;;;;17.22;50.90;101669.41;4953469;29;1081;-51
2023/10/07 05:23:33;;;;;;;;;;;;;;;17.15;49.20;101666.03;4953119;29;1227;-50
2023/10/07 05:26:03;;;;;;;;;;;;;;;16.94;48.34;101674.00;4957908;29;1985;-51
2023/10/07 05:28:30;;;;;;;;;;;;;;;16.85;47.73;101672.75;4957608;29;1025;-49
2023/10/07 05:30:57;;;;;;;;;;;;;;;17.62;50.29;101671.78;4957551;29;1053;-49
2023/10/07 05:33:26;;;;;;;;;;;;;;;17.18;49.46;101679.25;4957585;29;1034;-45
2023/10/07 05:36:24;;;;;;;;;;;;;;;16.98;48.55;101680.66;4955763;28;1154;-51
2023/10/07 05:38:47;;;;;;;;;;;;;;;17.85;50.33;101680.84;4950986;29;1228;-47
2023/10/07 05:41:14;;;;;;;;;;;;;;;17.37;49.48;101686.09;4959251;29;1135;-52
2023/10/07 05:43:43;;;;;;;;;;;;;;;17.01;49.02;101688.41;4951707;29;1015;-54
2023/10/07 05:46:11;;;;;;;;;;;;;;;17.07;47.93;101687.38;4955822;28;1914;-52
2023/10/07 05:48:38;;;;;;;;;;;;;;;17.57;49.69;101684.66;4947028;29;1132;-47
2023/10/07 05:51:08;;;;;;;;;;;;;;;17.15;48.97;101683.34;4955292;29;1080;-49
2023/10/07 05:53:51;;;;;;;;;;;;;;;17.05;47.73;101692.28;4950568;28;1478;-49
2023/10/07 05:56:17;;;;;;;;;;;;;;;17.57;49.27;101692.91;4955103;28;1486;-48
2023/10/07 05:58:44;;;;;;;;;;;;;;;17.24;48.64;101681.00;4960045;29;1228;-52
2023/10/07 06:01:11;;;;;;;;;;;;;;;17.10;47.65;101686.03;4959174;28;1461;-53
2023/10/07 06:03:37;;;;;;;;;;;;;;;17.95;49.35;101677.41;4959637;28;1280;-50
2023/10/07 06:06:04;;;;;;;;;;;;;;;17.34;49.26;101675.59;4962249;29;1914;-50
2023/10/07 06:08:30;;;;;;;;;;;;;;;17.20;48.27;101674.34;4948591;29;880;-55
2023/10/07 06:10:56;;;;;;;;;;;;;;;16.99;47.63;101676.81;4953276;29;1188;-50
2023/10/07 06:13:26;;;;;;;;;;;;;;;17.14;47.35;101678.09;4947990;29;1140;-50
2023/10/07 06:15:52;;;;;;;;;;;;;;;17.67;49.21;101673.78;4961084;29;1056;-48
2023/10/07 06:18:18;;;;;;;;;;;;;;;17.24;48.59;101668.06;4959986;29;1113;-51
2023/10/07 06:20:47;;;;;;;;;;;;;;;17.06;47.88;101669.22;4961691;29;1037;-49
2023/10/07 06:23:16;;;;;;;;;;;;;;;17.16;47.66;101656.69;4948334;29;1171;-48
2023/10/07 06:25:51;;;;;;;;;;;;;;;17.59;49.04;101664.06;4958034;29;1989;-50
2023/10/07 06:28:30;;;;;;;;;;;;;;;17.24;48.29;101659.00;4961318;28;1076;-51
2023/10/07 06:31:11;;;;;;;;;;;;;;;17.04;47.75;101654.91;4948549;29;1073;-49
2023/10/07 06:33:40;;;;;;;;;;;;;;;17.56;47.87;101661.03;4961134;28;1065;-50
2023/10/07 06:36:07;;;;;;;;;;;;;;;17.81;48.93;101656.84;4958174;28;1049;-47
2023/10/07 06:38:33;;;;;;;;;;;;;;;17.30;48.62;101655.22;4959384;29;1152;-47
2023/10/07 06:40:59;;;;;;;;;;;;;;;17.21;47.52;101648.53;4957493;29;1117;-52
2023/10/07 06:43:25;;;;;;;;;;;;;;;17.10;47.05;101653.06;4951205;29;1098;-52
2023/10/07 06:45:55;;;;;;;;;;;;;;;17.78;47.94;101653.53;4944628;29;1907;-50
2023/10/07 06:48:24;;;;;;;;;;;;;;;17.48;48.92;101655.97;4942977;29;1128;-53
2023/10/07 06:50:53;;;;;;;;;;;;;;;17.30;48.00;101657.97;4960787;29;1140;-53
2023/10/07 06:53:22;;;;;;;;;;;;;;;17.19;47.28;101656.19;4960454;29;1065;-54
2023/10/07 06:55:48;;;;;;;;;;;;;;;17.16;47.01;101659.44;4950324;28;1105;-55
2023/10/07 06:58:14;;;;;;;;;;;;;;;17.62;48.40;101660.78;4968477;28;1040;-55
2023/10/07 07:00:49;;;;;;;;;;;;;;;17.31;47.79;101654.13;4943680;29;1190;-55
2023/10/07 07:03:18;;;;;;;;;;;;;;;17.17;47.23;101656.44;4944407;29;1104;-55
2023/10/07 07:05:45;;;;;;;;;;;;;;;17.14;46.73;101654.22;4924717;29;1910;-54
2023/10/07 07:08:11;;;;;;;;;;;;;;;17.11;46.15;101654.72;4919549;29;1068;-53
2023/10/07 07:10:37;;;;;;;;;;;;;;;17.71;47.62;101647.41;4937197;29;1128;-55
2023/10/07 07:13:12;;;;;;;;;;;;;;;17.23;47.76;101651.84;4959348;28;990;-57
2023/10/07 07:15:37;;;;;;;;;;;;;;;17.07;47.30;101659.06;4950637;29;1106;-57
2023/10/07 07:18:25;;;;;;;;;;;;;;;17.23;46.85;101651.84;4959588;29;1003;-55
2023/10/07 07:20:49;;;;;;;;;;;;;;;17.40;47.97;101655.34;4952894;29;1408;-54
2023/10/07 07:23:21;;;;;;;;;;;;;;;17.24;47.41;101654.31;4958991;29;1104;-55
2023/10/07 07:25:59;;;;;;;;;;;;;;;17.08;47.12;101656.06;4947011;29;1910;-55
2023/10/07 07:28:24;;;;;;;;;;;;;;;17.04;46.56;101654.06;4959320;29;1122;-53
2023/10/07 07:30:52;;;;;;;;;;;;;;;17.96;47.44;101659.78;4959139;29;1014;-54
2023/10/07 07:33:25;;;;;;;;;;;;;;;17.43;48.08;101659.47;4957756;29;1067;-54
2023/10/07 07:35:56;;;;;;;;;;;;;;;17.18;47.56;101655.38;4958176;29;1265;-53
2023/10/07 07:38:32;;;;;;;;;;;;;;;17.93;48.09;101660.31;4954420;28;1378;-57
2023/10/07 07:41:04;;;;;;;;;;;;;;;17.48;48.00;101661.47;4959140;28;983;-54
2023/10/07 07:43:30;;;;;;;;;;;;;;;17.30;47.34;101659.91;4953283;29;1456;-55
2023/10/07 07:46:11;;;;;;;;;;;;;;;17.22;46.74;101661.16;4959182;29;1906;-55
2023/10/07 07:48:38;;;;;;;;;;;;;;;18.00;47.94;101652.66;4955522;29;1057;-54
2023/10/07 07:51:03;;;;;;;;;;;;;;;17.40;48.21;101655.34;4949735;29;939;-53
2023/10/07 07:53:30;;;;;;;;;;;;;;;17.29;47.50;101645.28;4959867;29;1216;-49
2023/10/07 07:55:58;;;;;;;;;;;;;;;17.26;46.88;101637.56;4959082;29;1017;-55
2023/10/07 07:58:24;;;;;;;;;;;;;;;17.13;46.61;101640.72;4946951;29;1054;-56
2023/10/07 08:00:58;;;;;;;;;;;;;;;17.52;47.43;101641.44;4957182;28;1159;-54
2023/10/07 08:03:27;;;;;;;;;;;;;;;17.74;48.61;101641.41;4953679;29;1061;-56
2023/10/07 08:05:54;;;;;;;;;;;;;;;17.42;48.05;101639.41;4959078;29;1907;-55
2023/10/07 08:08:24;;;;;;;;;;;;;;;17.27;47.31;101636.50;4959068;28;1125;-51
2023/10/07 08:10:54;;;;;;;;;;;;;;;17.20;47.15;101627.63;4959511;29;1113;-52
2023/10/07 08:13:23;;;;;;;;;;;;;;;17.08;46.68;101634.09;4955258;28;1119;-50
2023/10/07 08:15:52;;;;;;;;;;;;;;;17.03;46.54;101628.50;4956143;29;907;-58
2023/10/07 08:18:22;;;;;;;;;;;;;;;17.92;47.63;101631.97;4944536;29;1086;-57
2023/10/07 08:20:56;;;;;;;;;;;;;;;17.54;48.27;101630.19;4957250;29;1061;-58
2023/10/07 08:23:24;;;;;;;;;;;;;;;17.34;47.62;101628.88;4957429;29;1181;-54
2023/10/07 08:25:55;;;;;;;;;;;;;;;17.17;47.17;101630.88;4950201;29;1943;-56
2023/10/07 08:28:39;;;;;;;;;;;;;;;17.21;46.49;101624.63;4953589;29;1050;-55
2023/10/07 08:31:13;;;;;;;;;;;;;;;17.08;46.34;101625.84;4958252;29;1098;-53
2023/10/07 08:33:39;;;;;;;;;;;;;;;17.03;46.28;101623.03;4958241;29;1018;-56
2023/10/07 08:36:07;;;;;;;;;;;;;;;17.73;47.69;101617.72;4954058;29;1045;-54
2023/10/07 08:38:43;;;;;;;;;;;;;;;17.35;47.62;101621.44;4949702;29;1038;-54
2023/10/07 08:41:09;;;;;;;;;;;;;;;17.13;47.02;101618.75;4957995;29;1037;-56
2023/10/07 08:43:43;;;;;;;;;;;;;;;17.09;46.64;101619.22;4958438;29;1102;-55
2023/10/07 08:46:11;;;;;;;;;;;;;;;18.06;47.68;101623.25;4958090;29;1975;-55
2023/10/07 08:48:42;;;;;;;;;;;;;;;17.62;47.98;101615.97;4958214;29;1072;-56
2023/10/07 08:51:14;;;;;;;;;;;;;;;17.32;47.66;101611.81;4955053;29;1067;-56
2023/10/07 08:53:39;;;;;;;;;;;;;;;17.13;47.28;101607.75;4958224;29;1125;-56
2023/10/07 08:56:08;;;;;;;;;;;;;;;17.11;46.84;101616.25;4957635;29;1009;-57
2023/10/07 08:58:35;;;;;;;;;;;;;;;17.05;46.88;101601.59;4956977;29;1106;-56
2023/10/07 09:01:00;;;;;;;;;;;;;;;17.72;48.12;101588.53;4956608;29;1043;-53
2023/10/07 09:03:28;;;;;;;;;;;;;;;17.38;47.70;101586.03;4957624;29;950;-54
2023/10/07 09:05:56;;;;;;;;;;;;;;;17.30;47.34;101586.50;4956671;29;1914;-54
2023/10/07 09:08:25;;;;;;;;;;;;;;;17.22;46.73;101589.69;4956373;29;1023;-54
2023/10/07 09:10:51;;;;;;;;;;;;;;;17.04;46.81;101591.72;4957171;28;1026;-54
2023/10/07 09:13:27;;;;;;;;;;;;;;;17.08;46.40;101586.53;4957288;28;1037;-53
2023/10/07 09:15:53;;;;;;;;;;;;;;;17.84;47.17;101579.28;4957810;29;1208;-56
2023/10/07 09:18:22;;;;;;;;;;;;;;;17.47;48.10;101580.06;4958013;29;1146;-54
2023/10/07 09:20:50;;;;;;;;;;;;;;;17.24;47.56;101571.06;4957708;29;1029;-54
2023/10/07 09:23:19;;;;;;;;;;;;;;;17.21;47.08;101566.91;4957722;29;1169;-54
2023/10/07 09:25:51;;;;;;;;;;;;;;;17.14;46.84;101565.41;4948317;29;2297;-56
2023/10/07 09:28:38;;;;;;;;;;;;;;;17.12;46.23;101546.44;4942563;29;1211;-56
2023/10/07 09:31:08;;;;;;;;;;;;;;;17.05;45.93;101545.81;4956844;29;1191;-51
2023/10/07 09:33:37;;;;;;;;;;;;;;;17.67;47.74;101552.75;4955844;29;1155;-55
2023/10/07 09:38:48;;;;;;;;;;;;;;;17.12;47.26;101548.38;4946790;29;1010;-55
2023/10/07 09:43:48;;;;;;;;;;;;;;;17.08;46.29;101539.81;4960049;28;1021;-51
2023/10/07 09:46:27;;;;;;;;;;;;;;;17.72;47.51;101536.28;4956422;28;1990;-51
2023/10/07 09:48:53;;;;;;;;;;;;;;;17.30;47.43;101526.03;4945762;29;951;-49
2023/10/07 09:51:47;;;;;;;;;;;;;;;17.14;47.30;101525.06;4957014;29;865;-49
2023/10/07 09:54:16;;;;;;;;;;;;;;;17.81;48.13;101513.78;4957275;29;1065;-50
2023/10/07 09:57:06;;;;;;;;;;;;;;;17.40;48.07;101509.63;4957463;29;1002;-54
2023/10/07 09:59:59;;;;;;;;;;;;;;;17.28;47.17;101506.22;4955163;28;1088;-55
2023/10/07 10:02:31;;;;;;;;;;;;;;;17.24;46.70;101499.59;4949588;29;1157;-50
2023/10/07 10:04:57;;;;;;;;;;;;;;;17.85;47.93;101501.16;4956566;29;1910;-50
2023/10/07 10:07:41;;;;;;;;;;;;;;;17.71;48.23;101487.88;4944901;29;1042;-50
2023/10/07 10:10:12;;;;;;;;;;;;;;;17.34;47.83;101499.66;4946829;29;1485;-53
2023/10/07 10:13:28;;;;;;;;;;;;;;;17.30;47.28;101481.22;4955088;29;1316;-59
2023/10/07 10:18:05;;;;;;;;;;;;;;;17.21;46.56;101461.63;4952603;29;1010;-57
2023/10/07 10:20:42;;;;;;;;;;;;;;;17.12;46.10;101468.69;4957190;29;1141;-57
2023/10/07 10:23:18;;;;;;;;;;;;;;;17.08;46.19;101458.22;4957950;28;1097;-57
2023/10/07 10:25:53;;;;;;;;;;;;;;;17.93;47.41;101462.19;4960799;29;1967;-58
2023/10/07 10:28:20;;;;;;;;;;;;;;;17.38;47.63;101445.00;4960794;29;1057;-54
2023/10/07 10:30:46;;;;;;;;;;;;;;;17.36;47.12;101442.53;4960647;28;1153;-57
2023/10/07 10:33:17;;;;;;;;;;;;;;;17.19;46.89;101445.38;4960689;29;1021;-56
2023/10/07 10:35:48;;;;;;;;;;;;;;;17.21;46.24;101431.41;4960468;29;987;-57
2023/10/07 10:38:13;;;;;;;;;;;;;;;17.10;46.15;101445.03;4957032;28;1161;-58
2023/10/07 10:40:39;;;;;;;;;;;;;;;17.14;46.29;101428.03;4950499;29;1029;-60
2023/10/07 10:43:05;;;;;;;;;;;;;;;17.73;47.55;101419.66;4960270;29;1018;-58
2023/10/07 10:45:31;;;;;;;;;;;;;;;17.34;47.59;101424.63;4960348;29;1918;-56
2023/10/07 10:47:58;;;;;;;;;;;;;;;17.26;47.11;101409.44;4959262;29;1106;-58
2023/10/07 10:50:24;;;;;;;;;;;;;;;17.22;46.85;101405.56;4957590;29;1097;-61
2023/10/07 10:52:50;;;;;;;;;;;;;;;17.19;46.39;101400.59;4960162;29;1001;-57
2023/10/07 10:55:16;;;;;;;;;;;;;;;18.20;47.55;101387.75;4947583;28;1093;-55
2023/10/07 10:57:42;;;;;;;;;;;;;;;17.51;48.27;101389.56;4955669;29;1717;-59
2023/10/07 11:00:19;;;;;;;;;;;;;;;17.45;47.23;101390.63;4946917;29;1144;-57
2023/10/07 11:02:45;;;;;;;;;;;;;;;17.30;47.19;101391.31;4956589;29;1017;-58
2023/10/07 11:05:12;;;;;;;;;;;;;;;17.27;46.75;101369.88;4947808;29;1906;-58
2023/10/07 11:07:39;;;;;;;;;;;;;;;17.22;46.16;101375.31;4968774;28;1030;-61
2023/10/07 11:10:08;;;;;;;;;;;;;;;17.17;45.99;101367.06;4951376;29;999;-57
2023/10/07 11:12:33;;;;;;;;;;;;;;;17.21;46.04;101357.19;4955072;29;1325;-57
2023/10/07 11:15:13;;;;;;;;;;;;;;;17.99;47.06;101367.56;4952186;28;1275;-62
2023/10/07 11:17:41;;;;;;;;;;;;;;;17.42;47.50;101353.47;4960344;28;1105;-57
2023/10/07 11:20:09;;;;;;;;;;;;;;;17.37;46.94;101345.19;4946596;29;1112;-58
2023/10/07 11:22:41;;;;;;;;;;;;;;;17.23;46.55;101344.00;4959288;29;1296;-58
2023/10/07 11:25:14;;;;;;;;;;;;;;;17.14;46.64;101337.34;4959495;29;1898;-57
2023/10/07 11:27:42;;;;;;;;;;;;;;;17.10;46.16;101340.63;4954059;29;1104;-57
2023/10/07 11:30:11;;;;;;;;;;;;;;;17.07;46.02;101340.34;4949739;29;1021;-59
2023/10/07 11:32:39;;;;;;;;;;;;;;;17.89;46.98;101327.06;4957015;29;1130;-59
2023/10/07 11:35:20;;;;;;;;;;;;;;;17.57;47.72;101336.25;4958118;28;1088;-58
2023/10/07 11:37:49;;;;;;;;;;;;;;;17.31;47.43;101323.47;4953537;29;1025;-61
2023/10/07 11:40:15;;;;;;;;;;;;;;;17.19;46.86;101313.47;4941594;29;882;-58
2023/10/07 11:42:41;;;;;;;;;;;;;;;17.20;46.26;101328.06;4958277;29;1836;-65
2023/10/07 11:45:08;;;;;;;;;;;;;;;17.11;46.18;101308.50;4959053;29;1922;-58
2023/10/07 11:47:36;;;;;;;;;;;;;;;17.75;46.74;101306.63;4959132;29;1034;-55
2023/10/07 11:50:02;;;;;;;;;;;;;;;17.50;47.14;101304.59;4957015;29;1164;-51
2023/10/07 11:52:29;;;;;;;;;;;;;;;17.22;47.17;101304.72;4945902;28;1153;-52
2023/10/07 11:54:54;;;;;;;;;;;;;;;17.23;46.42;101300.84;4953551;29;1088;-58
2023/10/07 11:57:20;;;;;;;;;;;;;;;17.23;46.16;101294.53;4953989;29;1147;-58
2023/10/07 11:59:45;;;;;;;;;;;;;;;17.03;46.51;101295.25;4958914;28;903;-58
2023/10/07 12:02:11;;;;;;;;;;;;;;;18.03;46.82;101282.53;4952447;29;1185;-55
2023/10/07 12:04:38;;;;;;;;;;;;;;;17.42;47.51;101282.00;4952136;29;1959;-56
2023/10/07 12:07:05;;;;;;;;;;;;;;;17.37;47.21;101284.72;4955387;29;1227;-51
2023/10/07 12:09:30;;;;;;;;;;;;;;;17.25;46.80;101273.94;4948475;29;1122;-59
2023/10/07 12:11:58;;;;;;;;;;;;;;;17.22;46.44;101265.38;4954566;28;1378;-58
2023/10/07 12:14:27;;;;;;;;;;;;;;;18.12;47.12;101272.66;4953401;29;1102;-57
2023/10/07 12:16:52;;;;;;;;;;;;;;;17.49;47.81;101254.28;4952247;29;1078;-54
2023/10/07 12:19:18;;;;;;;;;;;;;;;17.30;47.37;101266.81;4955965;28;1114;-55
2023/10/07 12:21:49;;;;;;;;;;;;;;;17.20;46.99;101251.09;4950584;29;1297;-57
2023/10/07 12:24:16;;;;;;;;;;;;;;;17.16;46.69;101252.72;4958069;29;1902;-55
2023/10/07 12:26:45;;;;;;;;;;;;;;;17.13;46.15;101256.81;4958200;29;997;-57
2023/10/07 12:29:11;;;;;;;;;;;;;;;17.31;46.14;101252.81;4942731;29;1186;-60
2023/10/07 12:31:36;;;;;;;;;;;;;;;17.69;47.32;101237.03;4947563;29;1037;-55
2023/10/07 12:34:02;;;;;;;;;;;;;;;17.43;47.01;101231.44;4938991;29;1011;-53
2023/10/07 12:36:30;;;;;;;;;;;;;;;17.32;46.83;101235.22;4954703;29;1054;-58
2023/10/07 12:38:55;;;;;;;;;;;;;;;17.17;46.65;101226.91;4949597;29;1086;-55
2023/10/07 12:41:21;;;;;;;;;;;;;;;17.87;46.87;101221.13;4958424;29;1026;-55
2023/10/07 12:43:47;;;;;;;;;;;;;;;17.75;47.56;101226.84;4957430;29;998;-57
2023/10/07 12:46:14;;;;;;;;;;;;;;;17.38;47.71;101216.84;4958183;28;1985;-55
2023/10/07 12:48:40;;;;;;;;;;;;;;;17.30;47.02;101217.34;4945687;29;1386;-55
2023/10/07 12:51:06;;;;;;;;;;;;;;;17.44;46.11;101213.81;4957633;29;1347;-56
2023/10/07 12:53:33;;;;;;;;;;;;;;;17.23;46.43;101206.59;4958094;29;951;-55
2023/10/07 12:55:58;;;;;;;;;;;;;;;17.21;45.77;101192.31;4957989;29;1073;-54
2023/10/07 12:58:27;;;;;;;;;;;;;;;17.20;45.91;101190.66;4951005;29;1109;-58
2023/10/07 13:00:53;;;;;;;;;;;;;;;17.17;45.44;101194.75;4951758;29;1193;-58
2023/10/07 13:03:18;;;;;;;;;;;;;;;17.02;45.58;101194.66;4955922;28;1129;-52
2023/10/07 13:05:45;;;;;;;;;;;;;;;18.11;46.62;101194.78;4952438;29;1914;-58
2023/10/07 13:08:17;;;;;;;;;;;;;;;17.45;47.63;101187.16;4957739;29;1017;-50
2023/10/07 13:10:42;;;;;;;;;;;;;;;17.31;47.13;101183.28;4955873;29;1371;-58
2023/10/07 13:13:08;;;;;;;;;;;;;;;17.23;46.62;101184.59;4940252;29;1544;-53
2023/10/07 13:15:35;;;;;;;;;;;;;;;17.19;46.17;101172.50;4954396;29;910;-52
2023/10/07 13:18:03;;;;;;;;;;;;;;;18.16;47.13;101191.22;4938340;29;999;-54
2023/10/07 13:20:29;;;;;;;;;;;;;;;17.65;47.73;101175.41;4951392;29;1027;-58
2023/10/07 13:22:57;;;;;;;;;;;;;;;17.41;47.36;101170.38;4948202;29;979;-56
2023/10/07 13:25:24;;;;;;;;;;;;;;;17.38;46.66;101164.59;4957520;29;1910;-56
2023/10/07 13:27:49;;;;;;;;;;;;;;;17.28;46.27;101165.41;4957549;29;1033;-57
2023/10/07 13:30:16;;;;;;;;;;;;;;;17.17;46.33;101153.53;4944802;29;1029;-56
2023/10/07 13:32:44;;;;;;;;;;;;;;;17.15;45.92;101154.88;4957359;28;1095;-57
2023/10/07 13:35:15;;;;;;;;;;;;;;;17.85;47.45;101154.53;4952248;29;1319;-57
2023/10/07 13:37:43;;;;;;;;;;;;;;;17.45;47.21;101146.75;4957692;29;1173;-60
2023/10/07 13:40:15;;;;;;;;;;;;;;;17.38;46.75;101142.63;4957232;29;1126;-57
2023/10/07 13:42:47;;;;;;;;;;;;;;;17.30;46.46;101138.47;4954173;29;1017;-57
2023/10/07 13:45:14;;;;;;;;;;;;;;;17.22;46.27;101144.47;4957517;29;1974;-59
2023/10/07 13:47:39;;;;;;;;;;;;;;;17.22;46.13;101138.97;4944547;29;1168;-58
2023/10/07 13:50:14;;;;;;;;;;;;;;;17.27;45.55;101147.25;4957580;29;1049;-58